Time;durP1;ratioP1;P1;durP2;ratioP2;P2;SDS_P1;SDS_P2;PMS_P1;PMS_P2;Temp;Humidity;BMP_temperature;BMP_pressure;BME280_temperature;BME280_humidity;BME280_pressure;Samples;Min_cycle;Max_cycle;Signal;HPM_P1;HPM_P2
2022/05/09 00:01:34;;;;;;;17.80;3.08;;;;;;;10.78;94.82;102826.47;5077845;28;20093;-73
2022/05/09 00:04:00;;;;;;;17.08;2.63;;;;;;;10.71;95.33;102822.63;5077787;28;20070;-71
2022/05/09 00:06:25;;;;;;;12.02;2.63;;;;;;;10.87;96.36;102826.00;5078291;28;20108;-72
2022/05/09 00:08:50;;;;;;;15.38;2.70;;;;;;;10.66;95.20;102826.75;5079019;28;20463;-72
2022/05/09 00:11:16;;;;;;;15.65;3.13;;;;;;;10.68;98.16;102833.03;5077131;28;20119;-72
2022/05/09 00:13:42;;;;;;;11.88;2.72;;;;;;;10.70;95.74;102827.81;5078406;28;20154;-72
2022/05/09 00:16:08;;;;;;;11.48;2.35;;;;;;;10.79;95.32;102829.16;5078052;28;20162;-72
2022/05/09 00:18:33;;;;;;;7.90;2.25;;;;;;;10.90;94.70;102820.88;5078941;28;20070;-73
2022/05/09 00:20:58;;;;;;;10.02;2.60;;;;;;;10.80;94.17;102823.06;5077589;28;20033;-72
2022/05/09 00:23:24;;;;;;;9.23;2.53;;;;;;;10.74;93.98;102819.25;5077200;28;20048;-72
2022/05/09 00:25:49;;;;;;;11.60;2.88;;;;;;;10.55;96.10;102820.09;5078516;28;20036;-71
2022/05/09 00:28:15;;;;;;;6.97;3.00;;;;;;;10.48;97.41;102816.25;5078586;28;20025;-72
2022/05/09 00:30:41;;;;;;;17.85;2.88;;;;;;;10.20;96.82;102813.97;5078300;28;20488;-72
2022/05/09 00:33:07;;;;;;;9.85;2.50;;;;;;;10.26;97.33;102804.63;5077375;28;20074;-71
2022/05/09 00:35:32;;;;;;;9.38;2.70;;;;;;;10.24;96.83;102810.66;5059655;28;20476;-72
2022/05/09 00:37:57;;;;;;;13.77;2.78;;;;;;;10.34;97.17;102812.03;5078865;28;20084;-72
2022/05/09 00:40:23;;;;;;;16.38;3.10;;;;;;;10.20;97.13;102809.63;5077181;28;20101;-72
2022/05/09 00:42:53;;;;;;;12.02;2.72;;;;;;;10.19;97.37;102806.91;5078612;28;20028;-71
2022/05/09 00:45:22;;;;;;;10.15;2.50;;;;;;;10.26;97.04;102814.28;5078185;28;20471;-70
2022/05/09 00:47:48;;;;;;;8.98;3.03;;;;;;;10.36;97.44;102806.03;5078074;28;20102;-71
2022/05/09 00:50:19;;;;;;;8.40;3.75;;;;;;;10.52;99.04;102807.69;5076231;28;20033;-71
2022/05/09 00:52:50;;;;;;;16.63;3.45;;;;;;;10.34;98.07;102797.13;5069455;28;20472;-72
2022/05/09 00:55:23;;;;;;;14.75;2.60;;;;;;;10.18;98.15;102810.38;5075059;28;20031;-71
2022/05/09 00:57:56;;;;;;;11.93;2.53;;;;;;;10.28;99.53;102810.91;5075241;28;20021;-72
2022/05/09 01:00:23;;;;;;;9.73;2.90;;;;;;;10.48;97.97;102802.22;5074225;28;20102;-71
2022/05/09 01:03:04;;;;;;;8.85;2.63;;;;;;;10.27;99.86;102806.44;5074396;28;20031;-71
2022/05/09 01:05:30;;;;;;;10.77;3.00;;;;;;;10.12;98.52;102800.44;5074965;28;20103;-71
2022/05/09 01:07:58;;;;;;;7.97;2.83;;;;;;;10.02;99.20;102801.69;5074373;28;20039;-72
2022/05/09 01:10:30;;;;;;;9.02;2.63;;;;;;;9.94;99.48;102800.41;5075289;28;20032;-71
2022/05/09 01:12:58;;;;;;;17.63;3.22;;;;;;;9.75;99.32;102799.47;5074725;28;20024;-72
2022/05/09 01:15:25;;;;;;;8.10;2.95;;;;;;;9.70;100.00;102800.97;5060421;28;20037;-73
2022/05/09 01:17:51;;;;;;;5.28;2.70;;;;;;;9.69;100.00;102793.88;5073056;28;20028;-72
2022/05/09 01:20:17;;;;;;;11.90;2.80;;;;;;;9.61;99.95;102789.97;5074689;28;20036;-72
2022/05/09 01:22:43;;;;;;;8.80;2.70;;;;;;;9.60;100.00;102789.06;5074739;28;20518;-72
2022/05/09 01:25:12;;;;;;;12.52;3.10;;;;;;;9.43;100.00;102785.56;5074817;28;20107;-71
2022/05/09 01:27:41;;;;;;;7.78;3.10;;;;;;;9.41;100.00;102787.22;5073170;28;20040;-71
2022/05/09 01:30:28;;;;;;;16.98;3.33;;;;;;;9.38;100.00;102781.78;5074986;28;20032;-72
2022/05/09 01:33:14;;;;;;;12.65;3.10;;;;;;;9.40;100.00;102784.47;5073449;28;20488;-71
2022/05/09 01:35:42;;;;;;;11.20;2.67;;;;;;;9.38;100.00;102781.78;5074971;28;20191;-72
2022/05/09 01:38:30;;;;;;;9.90;3.17;;;;;;;9.34;100.00;102778.91;5074446;28;20025;-71
2022/05/09 01:40:56;;;;;;;9.80;3.22;;;;;;;9.26;100.00;102773.25;5073178;28;20448;-72
2022/05/09 01:43:39;;;;;;;11.70;3.03;;;;;;;9.26;100.00;102771.53;5074867;28;20067;-73
2022/05/09 01:46:08;;;;;;;12.15;3.08;;;;;;;9.08;100.00;102771.44;5072809;28;20032;-72
2022/05/09 01:51:18;;;;;;;13.05;3.30;;;;;;;9.26;100.00;102762.72;5064159;28;20150;-72
2022/05/09 01:53:52;;;;;;;8.40;3.15;;;;;;;9.24;100.00;102762.66;5073959;28;20032;-73
2022/05/09 01:56:19;;;;;;;9.70;3.22;;;;;;;9.39;100.00;102762.56;5073047;28;20031;-73
2022/05/09 01:58:45;;;;;;;9.00;3.60;;;;;;;9.09;100.00;102762.75;5072693;28;20081;-72
2022/05/09 02:01:11;;;;;;;11.00;3.63;;;;;;;9.07;100.00;102756.50;5071959;28;20036;-70
2022/05/09 02:03:36;;;;;;;13.63;3.47;;;;;;;9.36;100.00;102761.50;5074049;28;20078;-71
2022/05/09 02:06:02;;;;;;;11.73;3.35;;;;;;;9.06;100.00;102762.59;5074252;28;20468;-71
2022/05/09 02:08:28;;;;;;;9.35;2.67;;;;;;;9.04;100.00;102764.22;5073663;28;20046;-71
2022/05/09 02:10:53;;;;;;;10.20;3.53;;;;;;;8.99;100.00;102757.81;5074188;28;20099;-72
2022/05/09 02:13:20;;;;;;;10.63;3.13;;;;;;;8.95;100.00;102761.09;5073760;28;20033;-72
2022/05/09 02:15:45;;;;;;;9.10;3.33;;;;;;;8.86;100.00;102756.25;5071422;28;20426;-71
2022/05/09 02:18:10;;;;;;;9.52;3.30;;;;;;;9.02;100.00;102765.88;5072425;28;20097;-72
2022/05/09 02:20:36;;;;;;;13.48;3.35;;;;;;;8.98;100.00;102768.22;5072311;28;20032;-71
2022/05/09 02:23:01;;;;;;;8.70;3.00;;;;;;;8.93;100.00;102763.63;5073717;28;20059;-72
2022/05/09 02:25:29;;;;;;;13.75;3.53;;;;;;;8.88;100.00;102761.59;5073903;28;20033;-73
2022/05/09 02:27:56;;;;;;;23.15;3.95;;;;;;;8.87;100.00;102755.44;5073717;28;20445;-72
2022/05/09 02:30:22;;;;;;;16.85;3.67;;;;;;;8.76;100.00;102761.81;5073328;28;20468;-72
2022/05/09 02:32:47;;;;;;;12.27;3.85;;;;;;;9.00;100.00;102769.22;5071680;28;20016;-71
2022/05/09 02:35:13;;;;;;;13.18;4.38;;;;;;;8.77;100.00;102764.50;5073364;28;20032;-72
2022/05/09 02:37:39;;;;;;;7.78;3.45;;;;;;;8.82;100.00;102766.47;5073204;28;20028;-72
2022/05/09 02:40:05;;;;;;;18.55;3.75;;;;;;;8.71;100.00;102761.56;5072921;28;20027;-72
2022/05/09 02:42:30;;;;;;;10.63;3.67;;;;;;;8.75;100.00;102776.66;5089286;28;20451;-70
2022/05/09 02:44:55;;;;;;;13.38;3.95;;;;;;;8.76;100.00;102767.97;5073106;28;20028;-70
2022/05/09 02:47:21;;;;;;;16.33;4.60;;;;;;;8.68;100.00;102766.66;5072476;28;20107;-73
2022/05/09 02:49:46;;;;;;;15.27;4.30;;;;;;;8.69;100.00;102755.31;5071563;28;20103;-72
2022/05/09 02:52:12;;;;;;;16.52;4.13;;;;;;;8.62;100.00;102757.53;5072953;28;20388;-71
2022/05/09 02:54:38;;;;;;;14.50;3.75;;;;;;;8.57;100.00;102752.00;5071881;28;20369;-72
2022/05/09 02:57:05;;;;;;;15.65;4.13;;;;;;;8.54;100.00;102743.97;5071516;28;20469;-72
2022/05/09 02:59:30;;;;;;;13.23;3.85;;;;;;;8.76;100.00;102746.97;5080612;28;20467;-72
2022/05/09 03:01:55;;;;;;;11.55;4.30;;;;;;;8.64;100.00;102746.31;5073137;28;20243;-72
2022/05/09 03:04:39;;;;;;;15.27;3.80;;;;;;;8.58;100.00;102743.34;5071728;28;20040;-72
2022/05/09 03:07:06;;;;;;;11.63;4.05;;;;;;;8.57;100.00;102744.16;5071864;28;20036;-72
2022/05/09 03:09:32;;;;;;;10.50;3.85;;;;;;;8.54;100.00;102743.97;5073160;28;20020;-73
2022/05/09 03:11:58;;;;;;;10.75;4.28;;;;;;;8.44;100.00;102748.69;5071550;28;20396;-72
2022/05/09 03:14:23;;;;;;;18.08;4.47;;;;;;;8.52;100.00;102740.34;5073037;28;20051;-71
2022/05/09 03:16:49;;;;;;;13.30;3.97;;;;;;;8.46;100.00;102738.31;5069237;28;20031;-71
2022/05/09 03:19:14;;;;;;;19.30;4.25;;;;;;;8.54;100.00;102738.75;5072546;28;20032;-71
2022/05/09 03:21:40;;;;;;;17.08;4.80;;;;;;;8.39;100.00;102737.03;5072613;28;20081;-72
2022/05/09 03:24:06;;;;;;;10.27;3.50;;;;;;;8.55;100.00;102730.06;5072558;28;20044;-71
2022/05/09 03:26:31;;;;;;;14.13;3.85;;;;;;;8.38;100.00;102737.88;5071027;28;20023;-72
2022/05/09 03:28:57;;;;;;;9.57;3.47;;;;;;;8.62;100.00;102729.56;5071327;28;20020;-71
2022/05/09 03:31:22;;;;;;;16.67;4.05;;;;;;;8.55;100.00;102730.94;5072241;28;20448;-72
2022/05/09 03:33:48;;;;;;;9.75;4.00;;;;;;;8.43;100.00;102725.88;5072500;28;20028;-73
2022/05/09 03:36:13;;;;;;;19.23;4.30;;;;;;;8.28;100.00;102719.78;5072329;28;20111;-72
2022/05/09 03:38:39;;;;;;;17.10;4.03;;;;;;;8.24;100.00;102718.69;5071422;28;20024;-73
2022/05/09 03:41:04;;;;;;;19.67;3.95;;;;;;;8.38;100.00;102722.13;5072354;28;20043;-72
2022/05/09 03:43:29;;;;;;;11.43;4.03;;;;;;;8.10;100.00;102715.31;5072106;28;20483;-71
2022/05/09 03:45:55;;;;;;;17.23;4.20;;;;;;;8.05;100.00;102718.50;5072121;28;20066;-71
2022/05/09 03:48:21;;;;;;;14.52;3.95;;;;;;;8.07;100.00;102720.38;5071952;28;20032;-72
2022/05/09 03:50:46;;;;;;;14.73;4.47;;;;;;;8.22;100.00;102715.09;5072461;28;20031;-70
2022/05/09 03:53:12;;;;;;;11.18;3.90;;;;;;;8.10;100.00;102714.41;5070762;28;20097;-70
2022/05/09 03:55:37;;;;;;;15.98;4.28;;;;;;;8.09;100.00;102710.88;5071236;28;20063;-71
2022/05/09 03:58:03;;;;;;;18.33;4.55;;;;;;;8.07;100.00;102706.34;5072432;28;20532;-72
2022/05/09 04:00:32;;;;;;;20.15;4.18;;;;;;;7.89;100.00;102711.44;5069495;28;20078;-72
2022/05/09 04:02:59;;;;;;;18.83;4.63;;;;;;;7.88;100.00;102701.78;5070877;28;20085;-72
2022/05/09 04:05:30;;;;;;;17.70;4.63;;;;;;;8.00;100.00;102705.09;5072517;28;20031;-71
2022/05/09 04:07:57;;;;;;;11.70;4.25;;;;;;;8.08;100.00;102701.22;5070461;28;20472;-72
2022/05/09 04:10:25;;;;;;;14.98;4.22;;;;;;;8.02;100.00;102702.59;5084173;28;20111;-70
2022/05/09 04:12:51;;;;;;;12.18;4.32;;;;;;;7.93;100.00;102705.56;5071939;28;20399;-72
2022/05/09 04:18:01;;;;;;;;;;;;;;;7.91;100.00;102705.47;5072668;28;20071;-72
2022/05/09 04:20:29;;;;;;;19.00;4.50;;;;;;;8.10;100.00;102699.56;5071333;28;19951;-72
2022/05/09 04:22:56;;;;;;;10.60;3.95;;;;;;;8.17;100.00;102705.19;5070889;28;20102;-72
2022/05/09 04:25:22;;;;;;;12.95;4.07;;;;;;;8.03;100.00;102697.44;5071501;28;20025;-72
2022/05/09 04:27:48;;;;;;;13.70;3.97;;;;;;;7.87;100.00;102689.50;5073285;28;20533;-73
2022/05/09 04:30:14;;;;;;;18.70;4.25;;;;;;;8.09;100.00;102691.63;5074490;28;20028;-73
2022/05/09 04:32:40;;;;;;;12.60;4.72;;;;;;;8.12;100.00;102696.13;5075664;28;20033;-73
2022/05/09 04:35:07;;;;;;;10.20;3.58;;;;;;;8.13;100.00;102693.59;5075327;28;20550;-72
2022/05/09 04:37:33;;;;;;;17.10;4.70;;;;;;;8.08;100.00;102689.81;5074506;28;20024;-72
2022/05/09 04:39:59;;;;;;;13.68;3.95;;;;;;;8.36;100.00;102688.75;5075486;28;20037;-71
2022/05/09 04:42:24;;;;;;;14.70;4.15;;;;;;;8.12;100.00;102690.91;5074700;28;20024;-72
2022/05/09 04:44:50;;;;;;;12.55;4.93;;;;;;;8.22;100.00;102690.56;5074365;28;20020;-71
2022/05/09 04:47:15;;;;;;;18.63;5.00;;;;;;;8.40;100.00;102694.22;5075112;28;20090;-71
2022/05/09 04:49:40;;;;;;;11.95;4.22;;;;;;;8.14;100.00;102684.00;5075000;28;20031;-72
2022/05/09 04:52:06;;;;;;;9.07;4.00;;;;;;;8.08;100.00;102681.94;5073747;28;20488;-72
2022/05/09 04:54:32;;;;;;;11.65;4.13;;;;;;;8.13;100.00;102684.84;5075162;28;20028;-71
2022/05/09 04:56:57;;;;;;;15.52;4.13;;;;;;;8.18;100.00;102684.28;5074630;28;20391;-71
2022/05/09 04:59:23;;;;;;;11.80;4.25;;;;;;;8.28;100.00;102686.56;5069965;28;20025;-71
2022/05/09 05:01:48;;;;;;;15.70;4.93;;;;;;;8.50;100.00;102682.56;5067624;28;20439;-72
2022/05/09 05:04:16;;;;;;;11.77;3.97;;;;;;;8.42;100.00;102686.44;5073966;28;20119;-71
2022/05/09 05:06:41;;;;;;;20.98;4.90;;;;;;;8.40;100.00;102686.38;5075035;28;20095;-72
2022/05/09 05:09:06;;;;;;;19.13;4.55;;;;;;;8.50;100.00;102679.94;5074503;28;20115;-72
2022/05/09 05:11:32;;;;;;;13.95;4.15;;;;;;;8.69;100.00;102686.19;5073637;28;20028;-71
2022/05/09 05:13:57;;;;;;;20.65;4.97;;;;;;;8.54;100.00;102686.25;5075228;28;20040;-71
2022/05/09 05:16:59;;;;;;;15.73;4.53;;;;;;;8.66;100.00;102684.28;5074693;28;20063;-72
2022/05/09 05:19:07;;;;;;;20.50;4.30;;;;;;;8.65;100.00;102681.59;5074710;28;20129;-74
2022/05/09 05:21:33;;;;;;;19.00;4.40;;;;;;;8.61;100.00;102677.88;5073093;28;20067;-71
2022/05/09 05:23:59;;;;;;;15.70;5.05;;;;;;;8.70;100.00;102681.03;5073548;28;20483;-72
2022/05/09 05:26:24;;;;;;;19.55;5.05;;;;;;;8.62;100.00;102677.06;5074421;28;20408;-71
2022/05/09 05:28:49;;;;;;;15.43;4.43;;;;;;;8.74;100.00;102675.13;5072963;28;20157;-71
2022/05/09 05:31:17;;;;;;;15.68;4.43;;;;;;;8.80;100.00;102674.53;5074227;28;20103;-69
2022/05/09 05:33:44;;;;;;;13.20;4.22;;;;;;;8.90;100.00;102675.94;5071145;28;20033;-73
2022/05/09 05:36:09;;;;;;;17.55;5.00;;;;;;;8.80;100.00;102678.91;5073111;28;20025;-72
2022/05/09 05:38:35;;;;;;;12.20;3.95;;;;;;;8.92;100.00;102682.16;5073500;28;20389;-72
2022/05/09 05:41:00;;;;;;;13.80;5.00;;;;;;;8.92;100.00;102679.53;5073721;28;20024;-73
2022/05/09 05:43:25;;;;;;;11.90;4.43;;;;;;;9.11;100.00;102677.06;5073896;28;20028;-73
2022/05/09 05:45:57;;;;;;;20.00;4.85;;;;;;;9.21;100.00;102682.78;5087389;28;20040;-74
2022/05/09 05:48:24;;;;;;;14.45;4.85;;;;;;;9.19;100.00;102681.81;5072571;28;20024;-73
2022/05/09 05:50:50;;;;;;;13.88;5.22;;;;;;;9.25;100.00;102690.00;5072218;28;20537;-73
2022/05/09 05:53:16;;;;;;;15.57;4.95;;;;;;;9.27;100.00;102683.13;5071798;28;20037;-74
2022/05/09 05:55:41;;;;;;;15.13;4.22;;;;;;;9.33;100.00;102683.41;5073460;28;20055;-74
2022/05/09 05:58:07;;;;;;;16.55;5.03;;;;;;;9.41;100.00;102684.72;5073453;28;20043;-74
2022/05/09 06:00:32;;;;;;;18.95;5.22;;;;;;;9.52;100.00;102689.63;5070467;28;20117;-75
2022/05/09 06:02:58;;;;;;;16.98;4.65;;;;;;;9.48;100.00;102682.41;5074187;28;20032;-74
2022/05/09 06:05:23;;;;;;;14.45;4.97;;;;;;;9.62;100.00;102687.53;5070480;28;20024;-74
2022/05/09 06:07:54;;;;;;;18.08;4.60;;;;;;;9.73;100.00;102692.44;5071807;28;20025;-74
2022/05/09 06:10:20;;;;;;;17.63;4.85;;;;;;;9.83;100.00;102684.16;5069243;28;20137;-74
2022/05/09 06:12:46;;;;;;;12.38;4.70;;;;;;;9.94;100.00;102682.97;5072477;28;20044;-74
2022/05/09 06:17:59;;;;;;;14.68;5.55;;;;;;;10.16;100.00;102690.97;5070947;28;20051;-73
2022/05/09 06:20:26;;;;;;;15.27;4.68;;;;;;;10.27;99.87;102689.78;5071616;28;20048;-72
2022/05/09 06:22:58;;;;;;;15.68;5.47;;;;;;;10.35;98.63;102692.78;5071407;28;20187;-73
2022/05/09 06:25:25;;;;;;;16.67;5.22;;;;;;;10.46;98.18;102694.22;5071036;28;20036;-74
2022/05/09 06:27:51;;;;;;;16.13;4.80;;;;;;;10.49;96.62;102688.22;5070705;28;20028;-75
2022/05/09 06:30:18;;;;;;;16.90;5.13;;;;;;;10.61;97.31;102686.13;5070380;28;20345;-74
2022/05/09 06:32:44;;;;;;;16.40;4.50;;;;;;;10.69;97.59;102689.09;5070866;28;20034;-74
2022/05/09 06:35:14;;;;;;;15.50;4.97;;;;;;;10.78;96.18;102682.56;5072666;28;20103;-74
2022/05/09 06:37:40;;;;;;;16.98;5.55;;;;;;;10.89;94.95;102684.75;5070485;28;20028;-74
2022/05/09 06:40:09;;;;;;;13.95;3.95;;;;;;;10.97;96.08;102693.88;5071641;28;20410;-73
2022/05/09 06:42:35;;;;;;;15.02;4.90;;;;;;;11.05;96.81;102699.50;5070896;28;20039;-74
2022/05/09 06:45:00;;;;;;;16.15;4.75;;;;;;;11.13;95.28;102691.09;5068058;28;20039;-73
2022/05/09 06:47:26;;;;;;;12.90;4.47;;;;;;;11.22;94.60;102687.97;5072502;28;20468;-73
2022/05/09 06:49:51;;;;;;;17.50;5.28;;;;;;;11.31;95.70;102690.09;5073201;28;20417;-73
2022/05/09 06:52:17;;;;;;;13.95;4.85;;;;;;;11.43;94.01;102688.00;5067446;28;20036;-74
2022/05/09 06:54:42;;;;;;;20.65;4.63;;;;;;;11.53;90.38;102689.31;5071190;28;20021;-73
2022/05/09 06:57:08;;;;;;;23.08;6.10;;;;;;;11.66;89.14;102679.28;5069325;28;20025;-73
2022/05/09 06:59:34;;;;;;;11.85;4.47;;;;;;;11.76;88.70;102670.88;5069742;28;20456;-73
2022/05/09 07:02:01;;;;;;;11.50;4.50;;;;;;;11.86;86.86;102682.75;5072260;28;20025;-73
2022/05/09 07:04:27;;;;;;;16.40;5.18;;;;;;;11.94;87.28;102674.31;5070327;28;20040;-73
2022/05/09 07:06:52;;;;;;;11.15;4.25;;;;;;;11.99;87.07;102674.50;5073053;28;20025;-73
2022/05/09 07:09:17;;;;;;;14.43;5.28;;;;;;;12.06;87.34;102680.91;5071539;28;20024;-72
2022/05/09 07:11:43;;;;;;;16.40;4.78;;;;;;;12.13;84.47;102681.22;5070776;28;20032;-72
2022/05/09 07:14:09;;;;;;;16.00;4.80;;;;;;;12.20;84.69;102678.84;5069877;28;20028;-74
2022/05/09 07:16:36;;;;;;;15.20;4.75;;;;;;;12.28;85.77;102682.69;5071324;28;20024;-74
2022/05/09 07:19:03;;;;;;;14.90;4.38;;;;;;;12.36;85.09;102678.59;5070874;28;20028;-73
2022/05/09 07:21:29;;;;;;;22.08;5.35;;;;;;;12.39;83.49;102680.47;5073009;28;20553;-73
2022/05/09 07:23:54;;;;;;;12.38;4.55;;;;;;;12.46;83.83;102680.72;5071817;28;20080;-73
2022/05/09 07:26:20;;;;;;;10.63;4.35;;;;;;;12.60;83.51;102680.38;5070779;28;20478;-72
2022/05/09 07:28:45;;;;;;;23.10;5.18;;;;;;;12.63;83.25;102675.22;5072107;28;20117;-72
2022/05/09 07:31:10;;;;;;;11.48;4.93;;;;;;;12.71;84.77;102679.03;5071929;28;20038;-74
2022/05/09 07:33:36;;;;;;;9.32;4.55;;;;;;;12.81;83.17;102682.91;5072754;28;20373;-74
2022/05/09 07:36:03;;;;;;;16.27;5.00;;;;;;;12.90;83.60;102679.69;5072748;28;20460;-73
2022/05/09 07:38:28;;;;;;;18.75;5.30;;;;;;;12.96;84.18;102679.94;5070750;28;20074;-73
2022/05/09 07:40:54;;;;;;;19.75;5.30;;;;;;;13.08;83.51;102674.22;5072263;28;20024;-74
2022/05/09 07:43:23;;;;;;;12.95;5.07;;;;;;;13.21;82.17;102676.44;5069765;28;20533;-73
2022/05/09 07:45:50;;;;;;;15.95;5.45;;;;;;;13.29;82.56;102669.69;5071336;28;20031;-73
2022/05/09 07:48:16;;;;;;;18.27;4.88;;;;;;;13.40;83.57;102667.44;5071249;28;20032;-73
2022/05/09 07:50:42;;;;;;;12.77;5.45;;;;;;;13.53;82.74;102668.75;5072440;28;20032;-74
2022/05/09 07:53:18;;;;;;;12.43;5.05;;;;;;;13.63;80.17;102665.56;5072546;28;20702;-74
2022/05/09 07:55:44;;;;;;;14.77;6.18;;;;;;;13.76;81.29;102666.84;5072562;28;20033;-73
2022/05/09 07:58:10;;;;;;;15.23;5.25;;;;;;;13.89;80.08;102667.25;5072624;28;20051;-73
2022/05/09 08:00:37;;;;;;;14.43;5.15;;;;;;;13.98;77.89;102654.31;5070651;28;20036;-73
2022/05/09 08:03:04;;;;;;;26.70;5.07;;;;;;;14.11;78.37;102663.56;5074719;28;20025;-73
2022/05/09 08:05:30;;;;;;;15.55;5.05;;;;;;;14.19;77.22;102654.09;5075519;28;20024;-74
2022/05/09 08:07:55;;;;;;;10.73;4.53;;;;;;;14.34;76.82;102654.56;5055406;28;20349;-73
2022/05/09 08:10:21;;;;;;;15.57;5.10;;;;;;;14.46;74.59;102651.38;5074429;28;20027;-74
2022/05/09 08:12:47;;;;;;;18.00;5.00;;;;;;;14.66;75.16;102661.69;5076609;28;20039;-74
2022/05/09 08:15:16;;;;;;;10.13;4.85;;;;;;;14.78;73.93;102656.72;5076382;28;20487;-73
2022/05/09 08:17:41;;;;;;;13.85;4.68;;;;;;;14.91;72.59;102657.09;5075040;28;20024;-74
2022/05/09 08:20:08;;;;;;;14.20;5.00;;;;;;;14.98;73.29;102662.59;5075468;28;20097;-74
2022/05/09 08:22:34;;;;;;;13.23;4.45;;;;;;;15.13;72.08;102662.09;5073967;28;20044;-73
2022/05/09 08:25:01;;;;;;;7.60;4.45;;;;;;;15.21;73.12;102657.03;5074559;28;20020;-73
2022/05/09 08:27:26;;;;;;;14.07;4.50;;;;;;;15.36;74.01;102656.53;5075385;28;20025;-73
2022/05/09 08:29:54;;;;;;;16.85;4.43;;;;;;;15.56;69.45;102656.13;5074607;28;20055;-73
2022/05/09 08:32:20;;;;;;;16.83;6.18;;;;;;;15.71;68.69;102651.22;5073016;28;20115;-73
2022/05/09 08:34:45;;;;;;;15.95;4.80;;;;;;;15.82;69.99;102652.38;5075755;28;20099;-73
2022/05/09 08:37:11;;;;;;;8.50;4.03;;;;;;;15.94;67.70;102653.53;5075502;28;20028;-73
2022/05/09 08:39:36;;;;;;;12.85;4.70;;;;;;;16.07;67.10;102645.00;5075464;28;20103;-73
2022/05/09 08:42:05;;;;;;;17.38;4.70;;;;;;;16.20;68.07;102651.50;5072188;28;20027;-74
2022/05/09 08:45:00;;;;;;;13.10;4.75;;;;;;;16.37;68.34;102654.50;5072272;28;20358;-74
2022/05/09 08:47:44;;;;;;;25.50;5.13;;;;;;;16.51;66.39;102653.03;5083561;28;20032;-74
2022/05/09 08:50:15;;;;;;;10.02;4.13;;;;;;;16.64;65.03;102640.91;5069419;28;20422;-75
2022/05/09 08:53:12;;;;;;;16.75;4.88;;;;;;;16.71;65.96;102646.34;5072822;28;20024;-73
2022/05/09 08:55:41;;;;;;;14.57;4.43;;;;;;;16.94;66.45;102645.09;5040921;28;20115;-74
2022/05/09 08:58:19;;;;;;;12.80;5.00;;;;;;;17.11;63.09;102640.06;5074750;28;20437;-74
2022/05/09 09:00:50;;;;;;;15.50;4.63;;;;;;;17.29;67.02;102644.81;5073393;28;20082;-73
2022/05/09 09:03:38;;;;;;;10.65;4.03;;;;;;;17.42;64.42;102639.72;5075534;28;20349;-73
2022/05/09 09:06:59;;;;;;;12.10;3.95;;;;;;;17.65;62.70;102640.09;5075630;28;20024;-74
2022/05/09 09:10:08;;;;;;;12.68;4.57;;;;;;;17.71;59.40;102632.19;5020833;28;20405;-73
2022/05/09 09:12:57;;;;;;;14.07;4.57;;;;;;;17.77;57.67;102634.03;5036396;28;20380;-74
2022/05/09 09:15:43;;;;;;;13.07;3.90;;;;;;;17.86;56.24;102621.78;5074069;28;20043;-73
2022/05/09 09:18:36;;;;;;;11.85;3.97;;;;;;;17.95;55.73;102621.03;5073360;28;20029;-75
2022/05/09 09:21:52;;;;;;;12.80;3.28;;;;;;;18.06;55.08;102623.88;5074392;28;20029;-74
2022/05/09 09:24:38;;;;;;;8.38;3.15;;;;;;;18.22;53.71;102608.06;5032834;28;20533;-74
2022/05/09 09:27:22;;;;;;;11.55;3.80;;;;;;;18.39;55.19;102610.97;5073855;28;20077;-74
2022/05/09 09:29:58;;;;;;;8.95;3.40;;;;;;;18.49;51.44;102603.09;5073477;28;20040;-74
2022/05/09 09:32:23;;;;;;;11.93;3.08;;;;;;;18.67;49.96;102601.53;5074734;28;20020;-74
2022/05/09 09:35:01;;;;;;;10.48;2.92;;;;;;;18.69;47.30;102591.75;5079825;28;20361;-75
2022/05/09 09:37:33;;;;;;;8.15;3.28;;;;;;;18.76;50.28;102593.63;5067740;28;20111;-74
2022/05/09 09:39:59;;;;;;;6.53;2.90;;;;;;;18.92;48.24;102594.69;5073512;28;20510;-73
2022/05/09 09:42:24;;;;;;;12.15;3.08;;;;;;;18.92;47.75;102583.13;5073482;28;20048;-75
2022/05/09 09:44:53;;;;;;;6.63;2.35;;;;;;;19.04;51.09;102602.84;5074114;28;20446;-74
2022/05/09 09:47:18;;;;;;;7.07;2.30;;;;;;;19.14;47.46;102592.22;5073398;28;20066;-72
2022/05/09 09:49:44;;;;;;;8.50;2.72;;;;;;;19.27;44.78;102577.22;5074545;28;20036;-73
2022/05/09 09:52:18;;;;;;;5.90;1.83;;;;;;;19.29;41.56;102571.03;5074299;28;20024;-74
2022/05/09 09:54:47;;;;;;;;;;;;;;;19.32;43.20;102573.72;5072294;28;20429;-73
2022/05/09 09:57:17;;;;;;;6.15;2.10;;;;;;;19.40;42.51;102570.19;5073772;28;19920;-74
2022/05/09 09:59:44;;;;;;;6.68;2.35;;;;;;;19.46;44.80;102575.59;5072767;28;20033;-74
2022/05/09 10:02:16;;;;;;;8.93;2.03;;;;;;;19.59;40.97;102573.88;5072563;28;20070;-73
2022/05/09 10:04:42;;;;;;;9.15;2.33;;;;;;;19.41;40.60;102570.22;5072928;28;20043;-74
2022/05/09 10:07:16;;;;;;;4.82;1.63;;;;;;;19.61;39.74;102572.13;5072781;28;20028;-72
2022/05/09 10:10:00;;;;;;;7.85;1.73;;;;;;;19.26;39.43;102557.66;5073885;28;20032;-73
2022/05/09 10:12:28;;;;;;;4.22;1.48;;;;;;;19.29;38.36;102548.75;5072327;28;20467;-73
2022/05/09 10:14:54;;;;;;;9.10;1.70;;;;;;;19.43;40.31;102549.75;5071314;28;20449;-73
2022/05/09 10:17:30;;;;;;;6.70;1.63;;;;;;;19.72;39.41;102551.72;5071117;28;20150;-72
2022/05/09 10:19:57;;;;;;;5.47;2.00;;;;;;;19.94;42.36;102565.22;5074024;28;20029;-73
2022/05/09 10:25:17;;;;;;;6.72;2.05;;;;;;;20.00;38.08;102549.25;5073624;28;20085;-73
2022/05/09 10:27:44;;;;;;;3.55;1.15;;;;;;;20.23;38.11;102548.44;5073210;28;20043;-73
2022/05/09 10:30:22;;;;;;;4.95;1.60;;;;;;;20.20;39.32;102546.66;5073552;28;20464;-73
2022/05/09 10:32:53;;;;;;;5.75;1.73;;;;;;;20.50;39.00;102553.00;5070990;28;20035;-73
2022/05/09 10:35:27;;;;;;;8.93;2.15;;;;;;;20.92;41.96;102558.41;5072258;28;20070;-73
2022/05/09 10:38:11;;;;;;;6.35;1.67;;;;;;;21.07;40.14;102542.38;5078299;28;20047;-73
2022/05/09 10:40:42;;;;;;;8.15;2.03;;;;;;;21.16;38.97;102537.03;5062432;28;20031;-73
2022/05/09 10:43:28;;;;;;;4.68;1.83;;;;;;;21.39;37.29;102528.97;5073633;28;20059;-72
2022/05/09 10:45:54;;;;;;;6.55;2.22;;;;;;;21.68;37.37;102529.84;5076828;28;20029;-73
2022/05/09 10:48:38;;;;;;;12.18;2.25;;;;;;;21.63;35.37;102527.16;5073350;28;20032;-72
2022/05/09 10:51:11;;;;;;;7.25;2.50;;;;;;;21.58;38.08;102528.06;5073708;28;20024;-73
2022/05/09 10:53:53;;;;;;;6.57;2.58;;;;;;;21.45;36.52;102522.72;5071657;28;20055;-73
2022/05/09 10:56:24;;;;;;;9.23;2.92;;;;;;;21.52;38.88;102532.50;5071543;28;20029;-74
2022/05/09 10:58:59;;;;;;;9.77;2.72;;;;;;;21.87;37.82;102536.91;5073451;28;20484;-73
2022/05/09 11:01:47;;;;;;;7.43;2.35;;;;;;;22.08;36.34;102523.44;5072310;28;20055;-72
2022/05/09 11:04:14;;;;;;;6.10;2.30;;;;;;;21.87;34.89;102518.16;5070094;28;20024;-73
2022/05/09 11:07:07;;;;;;;6.88;2.55;;;;;;;21.93;35.54;102521.69;5072915;28;20024;-73
2022/05/09 11:09:49;;;;;;;6.85;2.17;;;;;;;21.64;35.04;102522.72;5073338;28;20086;-73
2022/05/09 11:12:51;;;;;;;9.70;2.60;;;;;;;21.77;36.72;102519.09;5071226;28;20052;-73
2022/05/09 11:15:38;;;;;;;14.98;3.13;;;;;;;22.41;37.40;102511.66;5071777;28;20039;-73
2022/05/09 11:18:12;;;;;;;5.95;2.58;;;;;;;22.62;37.96;102520.47;5071547;28;20124;-73
2022/05/09 11:21:14;;;;;;;6.43;2.67;;;;;;;23.14;35.65;102516.47;5071744;28;20028;-74
2022/05/09 11:23:58;;;;;;;8.18;2.78;;;;;;;23.22;35.37;102507.47;5054707;28;20503;-73
2022/05/09 11:26:49;;;;;;;7.53;2.60;;;;;;;22.88;32.60;102497.00;5071462;28;20052;-74
2022/05/09 11:29:35;;;;;;;11.52;3.10;;;;;;;22.95;34.31;102499.63;5065619;28;20075;-73
2022/05/09 11:32:26;;;;;;;6.93;2.83;;;;;;;22.82;33.98;102497.03;5066394;28;20497;-74
2022/05/09 11:35:17;;;;;;;9.75;3.10;;;;;;;23.13;38.38;102503.97;5072476;28;20032;-73
2022/05/09 11:38:06;;;;;;;10.15;3.00;;;;;;;23.41;36.03;102496.50;5069557;28;20497;-74
2022/05/09 11:40:50;;;;;;;11.07;3.70;;;;;;;23.64;32.82;102485.50;5069724;28;20383;-74
2022/05/09 11:43:48;;;;;;;9.35;2.55;;;;;;;23.88;33.21;102478.97;5061291;28;20036;-72